Time;durP1;ratioP1;P1;durP2;ratioP2;P2;SDS_P1;SDS_P2;PMS_P1;PMS_P2;Temp;Humidity;BMP_temperature;BMP_pressure;BME280_temperature;BME280_humidity;BME280_pressure;Samples;Min_cycle;Max_cycle;Signal;HPM_P1;HPM_P2
2023/11/23 00:05:12;;;;;;;37.80;20.20;;;;;;;-0.63;100.00;99787.08;270957;1269;23503;-90
2023/11/23 00:11:14;;;;;;;38.60;18.80;;;;;;;-0.60;100.00;99775.70;271662;1269;23586;-89
2023/11/23 00:17:48;;;;;;;;;;;;;;;;;;;;;
2023/11/23 00:23:53;;;;;;;38.30;20.00;;;;;;;-0.61;100.00;99761.67;272734;1269;22444;-89
2023/11/23 00:30:07;;;;;;;42.80;22.30;;;;;;;-0.59;100.00;99756.71;271439;1268;22326;-89
2023/11/23 00:36:14;;;;;;;50.40;26.20;;;;;;;-0.55;100.00;99749.23;271690;1268;22520;-88
2023/11/23 00:42:20;;;;;;;52.40;26.70;;;;;;;-0.54;100.00;99742.34;271303;1269;23347;-87
2023/11/23 00:48:27;;;;;;;49.00;24.40;;;;;;;-0.57;100.00;99732.15;272010;1269;22396;-88
2023/11/23 00:54:52;;;;;;;47.90;24.50;;;;;;;-0.60;100.00;99727.28;272776;1269;23359;-88
2023/11/23 01:00:55;;;;;;;47.40;23.60;;;;;;;-0.64;100.00;99728.73;271396;1269;22233;-88
2023/11/23 01:07:03;;;;;;;45.90;23.70;;;;;;;-0.65;100.00;99720.45;273321;1269;22914;-89
2023/11/23 01:13:16;;;;;;;49.50;25.70;;;;;;;-0.66;100.00;99713.78;271991;1269;22390;-88
2023/11/23 01:19:27;;;;;;;59.00;28.10;;;;;;;-0.67;100.00;99712.73;273051;1267;22456;-88
2023/11/23 01:25:29;;;;;;;55.90;28.80;;;;;;;-0.69;100.00;99695.65;271941;1267;25627;-89
2023/11/23 01:31:41;;;;;;;57.10;29.30;;;;;;;-0.70;100.00;99669.52;272472;1269;23300;-89
2023/11/23 01:37:53;;;;;;;60.60;28.50;;;;;;;-0.66;100.00;99645.19;273083;1268;22233;-88
2023/11/23 01:43:56;;;;;;;59.10;29.90;;;;;;;-0.62;100.00;99630.66;272125;1269;22288;-88
2023/11/23 01:49:59;;;;;;;60.80;29.30;;;;;;;-0.58;100.00;99630.88;273106;1269;22192;-88
2023/11/23 01:56:02;;;;;;;55.00;27.30;;;;;;;-0.61;100.00;99630.44;273001;1269;22363;-89
2023/11/23 02:02:05;;;;;;;58.30;27.70;;;;;;;-0.64;100.00;99624.36;273116;1269;22315;-87
2023/11/23 02:08:07;;;;;;;50.80;24.90;;;;;;;-0.62;100.00;99618.03;272667;1268;22594;-88
2023/11/23 02:14:09;;;;;;;57.70;27.60;;;;;;;-0.60;100.00;99612.47;270835;1269;25440;-88
2023/11/23 02:20:12;;;;;;;49.90;27.80;;;;;;;-0.62;100.00;99616.84;272389;1268;22447;-88
2023/11/23 02:26:14;;;;;;;56.10;29.60;;;;;;;-0.60;100.00;99625.80;271074;1269;23384;-88
2023/11/23 02:32:17;;;;;;;55.80;27.50;;;;;;;-0.60;100.00;99617.68;272723;1259;100614;-85
2023/11/23 02:38:55;;;;;;;56.10;26.00;;;;;;;-0.62;100.00;99603.35;273112;1269;22289;-85
2023/11/23 02:44:58;;;;;;;55.40;28.00;;;;;;;-0.70;100.00;99583.02;273914;1269;22202;-85
2023/11/23 02:51:00;;;;;;;50.50;26.80;;;;;;;-0.72;100.00;99572.87;273708;1270;22916;-85
2023/11/23 02:57:30;;;;;;;56.10;26.30;;;;;;;-0.71;100.00;99567.43;273792;1269;22357;-85
2023/11/23 03:04:15;;;;;;;50.90;26.10;;;;;;;-0.73;100.00;99564.23;273497;1258;22202;-84
2023/11/23 03:10:38;;;;;;;45.90;25.10;;;;;;;-0.79;100.00;99552.15;273443;1269;22390;-84
2023/11/23 03:16:41;;;;;;;46.10;23.70;;;;;;;-0.84;100.00;99547.64;273661;1269;22218;-84
2023/11/23 03:23:09;;;;;;;44.10;23.40;;;;;;;-0.90;100.00;99536.36;273667;1272;22196;-84
2023/11/23 03:29:52;;;;;;;47.80;24.20;;;;;;;-0.98;100.00;99523.08;272567;1269;22388;-85
2023/11/23 03:36:15;;;;;;;53.20;26.30;;;;;;;-1.02;100.00;99523.18;273449;1269;23361;-85
2023/11/23 03:42:18;;;;;;;50.50;24.40;;;;;;;-1.01;100.00;99527.20;273542;1269;22403;-84
2023/11/23 03:48:40;;;;;;;47.30;24.90;;;;;;;-1.04;100.00;99526.21;273833;1275;23277;-84
2023/11/23 03:55:24;;;;;;;45.80;25.20;;;;;;;-1.08;100.00;99518.09;273207;1269;22413;-84
2023/11/23 04:02:07;;;;;;;52.60;25.30;;;;;;;-1.04;100.00;99510.90;273891;1271;22247;-84
2023/11/23 04:08:29;;;;;;;48.90;24.20;;;;;;;-1.03;100.00;99506.00;273887;1272;22192;-84
2023/11/23 04:14:32;;;;;;;49.80;24.60;;;;;;;-1.05;100.00;99492.85;273304;1269;22376;-84
2023/11/23 04:20:35;;;;;;;52.80;26.30;;;;;;;-1.03;100.00;99483.75;274020;1269;24172;-83
2023/11/23 04:27:41;;;;;;;;;;;;;;;-0.99;100.00;99478.23;273471;1269;23325;-84
2023/11/23 04:33:43;;;;;;;47.30;23.60;;;;;;;-0.97;100.00;99475.67;273265;1269;22393;-83
2023/11/23 04:39:45;;;;;;;45.50;24.80;;;;;;;-0.97;100.00;99452.77;273668;1268;22264;-83
2023/11/23 04:46:07;;;;;;;51.20;26.30;;;;;;;-0.95;100.00;99442.41;273822;1269;22316;-84
2023/11/23 04:52:09;;;;;;;44.70;24.40;;;;;;;-0.90;100.00;99423.54;273181;1269;307460;-84
2023/11/23 04:58:14;;;;;;;47.90;24.30;;;;;;;-0.89;100.00;99406.61;273289;1268;23434;-84
2023/11/23 05:04:38;;;;;;;50.90;24.60;;;;;;;-0.87;100.00;99388.77;273742;1272;22288;-84
2023/11/23 05:10:40;;;;;;;49.40;26.60;;;;;;;-0.92;100.00;99373.67;273444;1264;22219;-84
2023/11/23 05:16:49;;;;;;;53.80;26.70;;;;;;;-0.94;100.00;99364.14;273632;1265;22175;-84
2023/11/23 05:23:12;;;;;;;50.60;25.90;;;;;;;-0.94;100.00;99356.63;272676;1269;22219;-84
2023/11/23 05:29:14;;;;;;;48.40;25.20;;;;;;;-0.97;100.00;99342.70;273772;1272;22238;-84
2023/11/23 05:35:16;;;;;;;43.10;21.30;;;;;;;-1.00;100.00;99330.11;270972;1266;22968;-84
2023/11/23 05:42:03;;;;;;;43.60;21.70;;;;;;;-1.05;100.00;99325.34;272105;1269;22435;-84
2023/11/23 05:48:21;;;;;;;40.90;21.40;;;;;;;-1.08;100.00;99319.43;271401;1269;22573;-84
2023/11/23 05:54:44;;;;;;;45.30;22.80;;;;;;;-1.11;100.00;99308.61;272398;1269;24216;-84
2023/11/23 06:01:02;;;;;;;48.30;24.10;;;;;;;-1.09;100.00;99302.41;270609;1269;22336;-83
2023/11/23 06:07:46;;;;;;;40.40;22.70;;;;;;;-1.05;100.00;99296.11;273878;1269;22218;-84
2023/11/23 06:13:47;;;;;;;36.20;19.20;;;;;;;-0.98;100.00;99290.89;273749;1269;22203;-84
2023/11/23 06:19:50;;;;;;;39.60;19.20;;;;;;;-0.91;100.00;99284.13;273348;1265;22198;-84
2023/11/23 06:25:56;;;;;;;36.00;19.80;;;;;;;-0.85;100.00;99269.95;273371;1269;22169;-84
2023/11/23 06:31:58;;;;;;;;;;;;;;;-0.82;100.00;99255.26;273823;1269;22493;-84
2023/11/23 06:38:04;;;;;;;35.10;17.60;;;;;;;-0.77;100.00;99241.59;273189;1269;22400;-84
2023/11/23 06:44:06;;;;;;;30.60;16.70;;;;;;;-0.70;100.00;99238.39;273156;1269;22431;-84
2023/11/23 06:50:09;;;;;;;35.80;17.40;;;;;;;-0.63;100.00;99240.10;273335;1269;22288;-83
2023/11/23 06:56:45;;;;;;;34.80;17.20;;;;;;;-0.55;100.00;99238.17;273048;1269;23489;-84
2023/11/23 07:03:03;;;;;;;36.30;15.70;;;;;;;-0.48;100.00;99221.00;273799;1269;22291;-83
2023/11/23 07:09:13;;;;;;;34.40;16.00;;;;;;;-0.37;100.00;99201.05;273343;1270;22197;-83
2023/11/23 07:15:31;;;;;;;29.10;15.90;;;;;;;-0.25;100.00;99203.34;273070;1269;22403;-84
2023/11/23 07:21:52;;;;;;;32.20;15.90;;;;;;;-0.13;100.00;99208.10;273108;1269;22198;-82
2023/11/23 07:27:54;;;;;;;31.40;16.70;;;;;;;0.01;100.00;99197.23;257959;1269;20002671;-83
2023/11/23 07:33:59;;;;;;;33.80;16.20;;;;;;;0.11;100.00;99171.81;273051;1269;22290;-83
2023/11/23 07:40:05;;;;;;;32.60;15.90;;;;;;;0.22;100.00;99155.68;273007;1262;22499;-83
2023/11/23 07:46:09;;;;;;;27.30;14.60;;;;;;;0.35;100.00;99152.80;273638;1266;22194;-83
2023/11/23 07:52:13;;;;;;;29.60;13.80;;;;;;;0.48;100.00;99132.77;273228;1269;22245;-84
2023/11/23 07:58:14;;;;;;;23.70;13.10;;;;;;;0.63;100.00;99145.96;272917;1269;23624;-84
2023/11/23 08:04:16;;;;;;;25.10;13.40;;;;;;;0.74;100.00;99135.38;273477;1269;22640;-84
2023/11/23 08:10:19;;;;;;;26.10;12.70;;;;;;;0.89;100.00;99122.55;271534;1269;22492;-86
2023/11/23 08:16:22;;;;;;;24.70;12.00;;;;;;;1.04;100.00;99115.04;273617;1273;22194;-84
2023/11/23 08:23:02;;;;;;;24.30;11.20;;;;;;;1.11;100.00;99108.70;273705;1269;22161;-85
2023/11/23 08:29:05;;;;;;;25.40;12.20;;;;;;;1.22;100.00;99113.38;273687;1257;22213;-84
2023/11/23 08:35:10;;;;;;;23.60;12.30;;;;;;;1.38;100.00;99104.24;273363;1269;22392;-86
2023/11/23 08:41:12;;;;;;;24.20;12.10;;;;;;;1.49;100.00;99096.80;272763;1269;22181;-87
2023/11/23 08:47:45;;;;;;;23.60;11.80;;;;;;;1.62;100.00;99091.77;273846;1269;22167;-86
2023/11/23 08:53:47;;;;;;;28.30;12.90;;;;;;;1.91;100.00;99088.33;272629;1269;22906;-85
2023/11/23 08:59:49;;;;;;;23.10;12.20;;;;;;;2.30;100.00;99095.55;272147;1269;22549;-85
2023/11/23 09:06:13;;;;;;;25.90;12.50;;;;;;;2.41;100.00;99093.73;272713;1269;22493;-85
2023/11/23 09:12:16;;;;;;;20.50;10.60;;;;;;;2.51;100.00;99082.60;273498;1269;23853;-85
2023/11/23 09:18:18;;;;;;;21.70;11.70;;;;;;;2.71;100.00;99073.19;272832;1269;22444;-87
2023/11/23 09:24:23;;;;;;;24.20;12.00;;;;;;;2.82;100.00;99047.46;273100;1269;23943;-86
2023/11/23 09:30:26;;;;;;;22.90;11.90;;;;;;;2.97;100.00;99042.32;272235;1269;22524;-85
2023/11/23 09:36:32;;;;;;;24.20;11.80;;;;;;;3.04;100.00;99037.33;272993;1269;22471;-87
2023/11/23 09:42:41;;;;;;;22.10;11.60;;;;;;;3.11;100.00;99006.28;273666;1269;23014;-87
2023/11/23 09:48:47;;;;;;;23.70;11.90;;;;;;;3.25;100.00;98986.73;272935;1269;22431;-87
2023/11/23 09:54:50;;;;;;;16.00;8.50;;;;;;;3.41;100.00;98979.83;270776;1268;23932;-87
2023/11/23 10:00:52;;;;;;;23.40;12.70;;;;;;;3.46;100.00;98963.39;271353;1263;23006;-87
2023/11/23 10:06:55;;;;;;;22.40;12.70;;;;;;;3.60;100.00;98942.36;272245;1267;23007;-87
2023/11/23 10:13:19;;;;;;;22.30;11.60;;;;;;;3.73;100.00;98930.26;271481;1269;23691;-88
2023/11/23 10:19:42;;;;;;;21.20;12.20;;;;;;;3.75;100.00;98918.80;271433;1269;23281;-87
2023/11/23 10:26:31;;;;;;;22.50;12.10;;;;;;;3.73;100.00;98899.55;273104;1269;22220;-87
2023/11/23 10:32:56;;;;;;;23.30;11.60;;;;;;;3.79;100.00;98890.10;272955;1270;22364;-87
2023/11/23 10:38:59;;;;;;;22.80;11.20;;;;;;;3.91;100.00;98876.89;273308;1269;22270;-89
2023/11/23 10:45:22;;;;;;;22.00;11.40;;;;;;;4.01;100.00;98870.29;273589;1272;22243;-87
2023/11/23 10:51:40;;;;;;;20.60;12.00;;;;;;;4.15;100.00;98865.26;273970;1273;22415;-88
2023/11/23 10:58:13;;;;;;;22.20;11.30;;;;;;;4.26;100.00;98849.25;271665;1269;24305;-89
2023/11/23 11:04:37;;;;;;;24.60;12.80;;;;;;;4.40;100.00;98828.42;270556;1260;22549;-88
2023/11/23 11:11:47;;;;;;;21.70;11.50;;;;;;;4.51;100.00;98806.77;271548;1269;24036;-87
2023/11/23 11:18:00;;;;;;;19.10;11.20;;;;;;;4.57;100.00;98796.51;270123;1269;22539;-87
2023/11/23 11:24:16;;;;;;;23.00;11.60;;;;;;;4.62;100.00;98779.63;273205;1266;22481;-88
2023/11/23 11:31:01;;;;;;;18.50;10.70;;;;;;;4.69;100.00;98762.88;272530;1269;23379;-88
2023/11/23 11:37:29;;;;;;;27.00;11.40;;;;;;;4.77;100.00;98751.50;273318;1270;22216;-87
2023/11/23 11:43:58;;;;;;;17.30;10.60;;;;;;;4.82;100.00;98729.23;273874;1269;23207;-87
2023/11/23 11:50:41;;;;;;;19.00;11.60;;;;;;;4.88;100.00;98709.30;273646;1276;22472;-88
2023/11/23 11:56:48;;;;;;;20.80;11.90;;;;;;;4.94;100.00;98687.84;273522;1273;22256;-87
2023/11/23 12:03:14;;;;;;;21.60;11.50;;;;;;;5.05;100.00;98682.94;270706;1269;22613;-88
2023/11/23 12:09:59;;;;;;;20.70;11.50;;;;;;;5.10;100.00;98677.50;272101;1269;22431;-87
2023/11/23 12:16:39;;;;;;;20.80;11.50;;;;;;;5.15;100.00;98661.34;271326;1268;23420;-87
2023/11/23 12:22:49;;;;;;;19.60;11.00;;;;;;;5.24;100.00;98648.27;272827;1269;25101;-90
2023/11/23 12:28:53;;;;;;;22.00;11.60;;;;;;;5.34;100.00;98633.18;270336;1269;22304;-87
2023/11/23 12:35:35;;;;;;;19.90;11.50;;;;;;;5.39;100.00;98621.00;273777;1270;22179;-89
2023/11/23 12:41:41;;;;;;;21.60;11.30;;;;;;;5.45;100.00;98618.16;273191;1270;22568;-88
2023/11/23 12:47:43;;;;;;;21.10;11.70;;;;;;;5.50;100.00;98613.57;273054;1269;22325;-88
2023/11/23 12:54:30;;;;;;;21.30;11.80;;;;;;;5.52;100.00;98620.77;273577;1271;22287;-87
2023/11/23 13:01:08;;;;;;;18.10;10.70;;;;;;;5.52;100.00;98614.70;272800;1269;22199;-89
2023/11/23 13:07:57;;;;;;;20.70;10.80;;;;;;;5.55;100.00;98605.31;273371;1269;22517;-89
2023/11/23 13:14:25;;;;;;;21.00;11.80;;;;;;;5.57;100.00;98586.61;272860;1269;22434;-87
2023/11/23 13:20:28;;;;;;;19.70;11.30;;;;;;;5.61;100.00;98580.71;272039;1262;23415;-90
2023/11/23 13:26:31;;;;;;;24.70;12.00;;;;;;;5.60;100.00;98580.31;271435;1269;24363;-90
2023/11/23 13:32:33;;;;;;;17.70;10.70;;;;;;;5.58;100.00;98564.42;271776;1268;22500;-90
2023/11/23 13:39:19;;;;;;;15.30;9.60;;;;;;;5.54;100.00;98557.29;273070;1269;22871;-87
2023/11/23 13:45:44;;;;;;;17.20;9.40;;;;;;;5.51;100.00;98552.70;271636;1261;23710;-90
2023/11/23 13:52:50;;;;;;;17.60;9.50;;;;;;;5.50;100.00;98547.48;271559;1265;23249;-88
2023/11/23 13:59:12;;;;;;;18.20;9.30;;;;;;;5.49;100.00;98537.83;271800;1268;25450;-88
2023/11/23 14:05:15;;;;;;;15.40;8.70;;;;;;;5.49;100.00;98527.27;271378;1269;22550;-89
2023/11/23 14:11:19;;;;;;;16.90;8.50;;;;;;;5.48;100.00;98514.63;271993;1260;22427;-87
2023/11/23 14:17:43;;;;;;;14.00;8.60;;;;;;;5.40;100.00;98497.68;273601;1269;23054;-87
2023/11/23 14:23:48;;;;;;;15.70;8.70;;;;;;;5.31;100.00;98490.34;273789;1276;22168;-87
2023/11/23 14:30:11;;;;;;;18.80;9.30;;;;;;;5.22;100.00;98475.46;273343;1266;22164;-86
2023/11/23 14:36:56;;;;;;;19.30;10.10;;;;;;;5.14;100.00;98456.05;273702;1269;22520;-87
2023/11/23 14:43:00;;;;;;;17.70;9.40;;;;;;;5.03;100.00;98445.23;273515;1269;22543;-86
2023/11/23 14:49:05;;;;;;;17.40;9.50;;;;;;;4.96;100.00;98440.41;271111;1269;23128;-86
2023/11/23 14:55:11;;;;;;;14.60;8.40;;;;;;;4.95;100.00;98446.77;272155;1269;22583;-88
2023/11/23 15:01:16;;;;;;;16.60;8.40;;;;;;;4.97;100.00;98440.76;271841;1269;23521;-89
2023/11/23 15:07:19;;;;;;;16.60;9.00;;;;;;;5.00;100.00;98438.51;273339;1260;23717;-87
2023/11/23 15:20:49;;;;;;;15.00;8.50;;;;;;;4.99;100.00;98436.55;274029;1275;23470;-87
2023/11/23 15:26:51;;;;;;;14.00;8.30;;;;;;;4.97;100.00;98426.02;272037;1266;22619;-88
2023/11/23 15:33:15;;;;;;;17.70;8.30;;;;;;;4.94;100.00;98418.98;271863;1264;23476;-88
2023/11/23 15:39:35;;;;;;;16.00;8.60;;;;;;;4.92;100.00;98411.11;272795;1268;22559;-89
2023/11/23 15:45:37;;;;;;;12.90;7.30;;;;;;;4.90;100.00;98408.59;264019;1269;10001707;-89
2023/11/23 15:51:40;;;;;;;15.40;7.80;;;;;;;4.88;100.00;98391.19;273249;1269;22576;-87
2023/11/23 15:57:46;;;;;;;14.10;8.20;;;;;;;4.88;100.00;98380.79;271898;1262;22551;-88
2023/11/23 16:03:48;;;;;;;13.70;7.70;;;;;;;4.86;100.00;98373.63;271343;1269;22115;-88
2023/11/23 16:09:52;;;;;;;14.80;8.40;;;;;;;4.86;100.00;98357.27;271895;1269;22523;-86
2023/11/23 16:15:57;;;;;;;17.10;8.60;;;;;;;4.86;100.00;98344.58;272180;1260;22563;-88
2023/11/23 16:21:59;;;;;;;12.80;7.40;;;;;;;4.87;100.00;98339.02;272350;1269;22319;-87
2023/11/23 16:28:23;;;;;;;13.30;8.10;;;;;;;4.87;100.00;98331.10;273086;1267;22359;-88
2023/11/23 16:34:25;;;;;;;15.10;8.20;;;;;;;4.88;100.00;98322.61;271476;1267;22567;-88
2023/11/23 16:40:45;;;;;;;12.70;7.40;;;;;;;4.90;100.00;98317.24;272807;1269;22543;-89
2023/11/23 16:47:11;;;;;;;14.10;7.90;;;;;;;4.93;100.00;98308.15;271341;1268;23739;-85
2023/11/23 16:53:37;;;;;;;15.40;7.70;;;;;;;4.96;100.00;98292.25;273224;1270;316106;-89
2023/11/23 16:59:41;;;;;;;14.40;7.30;;;;;;;5.00;100.00;98278.17;273748;1276;23005;-88
2023/11/23 17:05:46;;;;;;;12.90;7.50;;;;;;;5.04;100.00;98264.31;273569;1269;22562;-86
2023/11/23 17:12:03;;;;;;;13.10;6.70;;;;;;;5.07;100.00;98245.75;271371;1269;22664;-86
2023/11/23 17:18:24;;;;;;;12.20;7.10;;;;;;;5.11;100.00;98233.05;271182;1269;25336;-89
2023/11/23 17:24:34;;;;;;;10.70;6.30;;;;;;;5.14;100.00;98217.38;272479;1268;23030;-87
2023/11/23 17:30:38;;;;;;;15.60;9.10;;;;;;;5.15;100.00;98207.56;273737;1271;23073;-89
2023/11/23 17:36:40;;;;;;;10.20;6.40;;;;;;;5.16;100.00;98192.23;272188;1266;22454;-87
2023/11/23 17:43:23;;;;;;;11.80;6.90;;;;;;;5.20;100.00;98178.80;273121;1268;22432;-90
2023/11/23 17:49:28;;;;;;;13.20;7.30;;;;;;;5.22;100.00;98167.46;272156;1269;22224;-87
2023/11/23 17:55:59;;;;;;;14.90;7.60;;;;;;;5.24;100.00;98155.32;273228;1269;22609;-89
2023/11/23 18:02:03;;;;;;;13.10;7.90;;;;;;;5.26;100.00;98150.24;272830;1269;22212;-86
2023/11/23 18:08:08;;;;;;;14.20;7.70;;;;;;;5.29;100.00;98144.56;272619;1254;23982;-84
2023/11/23 18:14:11;;;;;;;12.50;6.80;;;;;;;5.33;100.00;98126.80;271004;1269;22638;-90
2023/11/23 18:20:39;;;;;;;12.80;6.90;;;;;;;5.38;100.00;98114.55;272470;1269;22239;-89
2023/11/23 18:26:42;;;;;;;13.60;7.20;;;;;;;5.42;100.00;98102.70;272615;1269;23314;-85
2023/11/23 18:32:50;;;;;;;12.90;7.20;;;;;;;5.44;100.00;98093.48;274032;1269;22186;-88
2023/11/23 18:38:55;;;;;;;13.40;7.10;;;;;;;5.47;100.00;98081.52;273786;1265;23772;-88
2023/11/23 18:44:59;;;;;;;15.80;7.10;;;;;;;5.50;100.00;98066.37;272501;1269;22786;-85
2023/11/23 18:51:02;;;;;;;11.80;7.00;;;;;;;5.57;100.00;98047.63;273286;1269;22405;-87
2023/11/23 18:57:06;;;;;;;11.60;6.10;;;;;;;5.61;100.00;98033.96;273031;1269;22528;-85
2023/11/23 19:03:09;;;;;;;9.20;5.10;;;;;;;5.66;100.00;98021.71;272427;1268;23027;-88
2023/11/23 19:09:14;;;;;;;9.50;5.90;;;;;;;5.69;100.00;97993.83;271920;1269;22214;-87
2023/11/23 19:15:18;;;;;;;14.00;6.00;;;;;;;5.74;100.00;97985.20;271443;1267;22195;-86
2023/11/23 19:21:27;;;;;;;12.10;6.70;;;;;;;5.81;100.00;97972.73;271981;1266;24238;-86
2023/11/23 19:27:32;;;;;;;11.70;6.20;;;;;;;5.87;100.00;97961.27;271014;1263;23634;-87
2023/11/23 19:33:52;;;;;;;10.30;5.30;;;;;;;5.90;100.00;97908.53;272761;1269;22561;-88
2023/11/23 19:39:57;;;;;;;7.80;5.40;;;;;;;5.92;100.00;97875.13;271833;1269;22229;-85
2023/11/23 19:45:59;;;;;;;9.70;5.90;;;;;;;5.89;100.00;97864.69;265563;1269;10001433;-86
2023/11/23 19:52:23;;;;;;;10.40;5.60;;;;;;;5.89;100.00;97844.13;273073;1269;22206;-86
2023/11/23 19:58:29;;;;;;;10.60;5.50;;;;;;;5.88;100.00;97816.88;272402;1268;23877;-86
2023/11/23 20:04:53;;;;;;;10.00;6.30;;;;;;;5.87;100.00;97797.00;272289;1269;22213;-86
2023/11/23 20:10:58;;;;;;;10.50;6.40;;;;;;;5.86;100.00;97786.52;273343;1269;22984;-86
2023/11/23 20:17:04;;;;;;;11.20;6.60;;;;;;;5.84;100.00;97765.02;273859;1275;22307;-86
2023/11/23 20:23:49;;;;;;;10.70;6.00;;;;;;;5.82;100.00;97746.04;274023;1269;22214;-87
2023/11/23 20:29:51;;;;;;;13.50;7.40;;;;;;;5.79;100.00;97718.44;273604;1268;22272;-87
2023/11/23 20:35:53;;;;;;;10.10;6.30;;;;;;;5.77;100.00;97710.35;273814;1266;22379;-87
2023/11/23 20:42:18;;;;;;;12.60;6.50;;;;;;;5.76;100.00;97686.52;273327;1269;23356;-88
2023/11/23 20:49:03;;;;;;;11.20;5.70;;;;;;;5.74;100.00;97665.17;272176;1268;22208;-86
2023/11/23 20:55:07;;;;;;;10.40;6.30;;;;;;;5.75;100.00;97650.67;273860;1269;22930;-87
2023/11/23 21:01:32;;;;;;;8.90;5.80;;;;;;;5.77;100.00;97641.92;273803;1269;22206;-85
2023/11/23 21:07:35;;;;;;;9.60;6.00;;;;;;;5.80;100.00;97630.63;271867;1268;22583;-86
2023/11/23 21:13:37;;;;;;;12.70;5.80;;;;;;;5.81;100.00;97604.42;273640;1269;22211;-87
2023/11/23 21:20:20;;;;;;;12.10;6.70;;;;;;;5.82;100.00;97593.02;271284;1269;22509;-85
2023/11/23 21:26:45;;;;;;;11.40;6.50;;;;;;;5.82;100.00;97585.05;273669;1269;22332;-86
2023/11/23 21:32:48;;;;;;;13.10;6.20;;;;;;;5.84;100.00;97572.65;271524;1268;22545;-87
2023/11/23 21:38:52;;;;;;;10.20;5.60;;;;;;;5.84;100.00;97554.89;271633;1269;22202;-87
2023/11/23 21:45:16;;;;;;;9.30;5.50;;;;;;;5.91;100.00;97549.19;271395;1268;23132;-86
2023/11/23 21:51:20;;;;;;;7.10;4.60;;;;;;;6.01;100.00;97539.46;271215;1269;22656;-87
2023/11/23 21:58:02;;;;;;;7.50;4.30;;;;;;;6.10;100.00;97520.27;273138;1269;22177;-87
2023/11/23 22:04:48;;;;;;;8.00;4.60;;;;;;;6.20;100.00;97503.86;273687;1269;22461;-88
2023/11/23 22:10:51;;;;;;;8.10;5.60;;;;;;;6.28;100.00;97497.36;271256;1269;23570;-87
2023/11/23 22:17:16;;;;;;;7.70;4.90;;;;;;;6.34;100.00;97482.17;270970;1269;22562;-87
2023/11/23 22:23:18;;;;;;;8.60;4.90;;;;;;;6.40;100.00;97451.74;273175;1269;22413;-86
2023/11/23 22:29:22;;;;;;;6.90;4.10;;;;;;;6.53;100.00;97434.08;271719;1268;22563;-88
2023/11/23 22:35:26;;;;;;;6.70;3.90;;;;;;;6.65;100.00;97427.86;271461;1262;25370;-88
2023/11/23 22:41:43;;;;;;;5.80;3.70;;;;;;;6.62;100.00;97405.96;272333;1268;22754;-87
2023/11/23 22:47:45;;;;;;;6.10;3.50;;;;;;;6.61;100.00;97400.77;271413;1269;22554;-88
2023/11/23 22:54:15;;;;;;;6.80;4.20;;;;;;;6.64;100.00;97385.45;270663;1269;22960;-88
2023/11/23 23:01:23;;;;;;;8.10;3.70;;;;;;;6.75;100.00;97359.28;272914;1264;22649;-88
2023/11/23 23:07:26;;;;;;;4.60;2.80;;;;;;;6.83;100.00;97343.90;271962;1269;22617;-87
2023/11/23 23:13:55;;;;;;;3.40;1.80;;;;;;;6.97;100.00;97327.48;271722;1269;22183;-86
2023/11/23 23:20:34;;;;;;;2.50;1.80;;;;;;;7.13;100.00;97318.05;273065;1268;22187;-90
2023/11/23 23:26:57;;;;;;;3.40;1.90;;;;;;;7.27;100.00;97308.21;273812;1271;23227;-88
2023/11/23 23:33:00;;;;;;;2.80;1.60;;;;;;;7.36;100.00;97296.14;272563;1268;22553;-89
2023/11/23 23:39:02;;;;;;;2.30;1.20;;;;;;;7.47;100.00;97288.94;272690;1269;22202;-88
2023/11/23 23:45:06;;;;;;;3.10;1.30;;;;;;;7.55;100.00;97277.48;271748;1269;22652;-86
2023/11/23 23:51:08;;;;;;;1.80;1.20;;;;;;;7.59;100.00;97266.09;273530;1269;23214;-88
2023/11/23 23:57:10;;;;;;;1.60;1.00;;;;;;;7.64;100.00;97256.57;273072;1269;22525;-89
